Wednesday, November 14, 2018, 6:45 AM GMT
Back to Local

CYPD, Port Hawkesbury

Location: , , Canada Lat: 45.667
Local Time: 6:45 AM GMT ( 6:45 GMT) Lon: -61.383
Time Zone: GMT Elev: 374 ft

Show me the last for .
Show Decoded

2018-11-14 06:27 METAR CYPD 140627Z AUTO 36006KT 310V030 6SM BR OVC008 04/03 A2927 RMK SLP919 =
2018-11-14 06:14 METAR CYPD 140614Z AUTO 36005KT 350V050 5SM BR BKN008 OVC013 04/04 A2927 RMK
                 PRESFR SLP919 =
2018-11-14 06:05 METAR CYPD 140605Z AUTO 03006KT 350V050 4SM BR FEW004 OVC010 04/04 A2928 RMK
                 PRESFR SLP921 =
2018-11-14 06:00 METAR CYPD 140600Z AUTO 01006KT 4SM -RA BR FEW004 OVC010 04/04 A2929 RMK PRESFR
                 PCPN 0.5MM PAST HR SLP924 =
2018-11-14 05:56 METAR CYPD 140556Z AUTO 02007KT 330V040 3SM -RA BR FEW004 OVC010 04/04 A2929 RMK
                 PRESFR SLP925 =
2018-11-14 05:47 METAR CYPD 140547Z AUTO 36005KT 320V060 2 1/2SM -RA BR SCT004 OVC012 05/04 A2931
                 RMK SLP930 =
2018-11-14 05:43 METAR CYPD 140543Z AUTO 02005KT 320V070 2 1/2SM -RA BR SCT004 BKN009 OVC014
                 05/05 A2931 RMK SLP931 =
2018-11-14 05:32 METAR CYPD 140532Z AUTO 05005KT 2SM -RA BR SCT004 BKN012 OVC017 05/05 A2931 RMK
                 PRESFR SLP932 =
2018-11-14 05:18 METAR CYPD 140518Z AUTO VRB06KT 2 1/2SM -RA BR BKN004 OVC009 05/05 A2934 RMK
                 PRESRR SLP941 =
2018-11-14 05:00 METAR CYPD 140500Z AUTO 07016G26KT 330V080 3SM -RA BR OVC004 05/04 A2932 RMK
                 PRESFR SLP934 =
2018-11-14 04:26 METAR CYPD 140426Z AUTO 08013G22KT 3SM -RA BR OVC004 04/04 A2939 RMK PRESFR
                 SLP957 =
2018-11-14 04:14 METAR CYPD 140414Z AUTO 09017G25KT 2 1/4SM -RA BR OVC004 04/04 A2941 RMK PRESFR
                 SLP965 =
2018-11-14 04:00 METAR CYPD 140400Z AUTO 10019G29KT 3SM -RA BR OVC004 04/04 A2943 RMK PRESFR
                 SLP973 =
2018-11-14 03:00 METAR CYPD 140300Z AUTO 10019G28KT 3SM -RA BR BKN004 OVC011 03/03 A2957 RMK
                 PRESFR SLP018 =
2018-11-14 02:45 METAR CYPD 140245Z AUTO 10021KT 3SM -RA BR BKN004 OVC009 03/03 A2959 RMK PRESFR
                 SLP027 =
2018-11-14 02:20 METAR CYPD 140220Z AUTO 10016G23KT 2 1/4SM -RA BR OVC004 02/02 A2966 RMK PRESFR
                 SLP051 =
2018-11-14 02:07 METAR CYPD 140207Z AUTO 09017G23KT 1 3/4SM -RA -UP BR OVC004 02/02 A2968 RMK
                 PRESFR SLP058 =
2018-11-14 02:00 METAR CYPD 140200Z AUTO 09015G22KT 2SM -RA BR OVC004 02/01 A2969 RMK PRESFR
                 SLP062 =
2018-11-14 01:34 METAR CYPD 140134Z AUTO 09015G20KT 2 1/2SM -RA BR OVC004 01/01 A2974 RMK ICG
                 PAST HR PRESFR SLP076 =
2018-11-14 01:16 METAR CYPD 140116Z AUTO 10016G22KT 3SM -RA BR OVC004 01/00 A2976 RMK ICG PAST HR
                 PRESFR SLP084 =
2018-11-14 01:03 METAR CYPD 140103Z AUTO 10017G22KT 3SM -RA -UP BR OVC004 00/00 A2978 RMK ICG
                 PAST HR PRESFR SLP091 =
2018-11-14 01:02 METAR CYPD 140102Z AUTO 10016G22KT 3SM -FZRA BR OVC004 00/00 A2978 RMK ICG PAST
                 HR PRESFR SLP091 =
2018-11-14 01:00 METAR CYPD 140100Z AUTO 10018G23KT 4SM -FZRA BR OVC004 00/00 A2978 RMK ICG INTMT
                 PRESFR SLP092 =
2018-11-14 00:57 METAR CYPD 140057Z AUTO 10017G23KT 4SM -FZRA BR OVC004 00/00 A2979 RMK ICG INTMT
                 PRESFR SLP096 =
2018-11-14 00:55 METAR CYPD 140055Z AUTO 10018G23KT 4SM -FZRA -SN OVC004 00/00 A2980 RMK ICG
                 INTMT PRESFR SLP100 =
2018-11-14 00:52 METAR CYPD 140052Z AUTO 10018G23KT 3SM -SN -FZUP OVC004 00/00 A2981 RMK ICG
                 INTMT PRESFR SLP103 =
2018-11-14 00:51 METAR CYPD 140051Z AUTO 09017G23KT 2 1/2SM -SN -FZUP OVC004 00/00 A2981 RMK ICG
                 INTMT PRESFR SLP103 =
2018-11-14 00:42 METAR CYPD 140042Z AUTO 09015G23KT 2SM -SN OVC004 00/00 A2985 RMK ICG SLP115 =
2018-11-14 00:39 METAR CYPD 140039Z AUTO 09014G25KT 3SM -SN OVC004 00/00 A2986 RMK ICG PAST HR
                 SLP117 =
2018-11-14 00:26 METAR CYPD 140026Z AUTO 10017G23KT 5SM -SN -UP OVC004 00/00 A2986 RMK ICG PAST
                 HR PRESFR SLP117 =
2018-11-14 00:24 METAR CYPD 140024Z AUTO 09015G21KT 5SM -RASN -UP OVC004 00/00 A2986 RMK ICG PAST
                 HR PRESFR SLP119 =
2018-11-14 00:22 METAR CYPD 140022Z AUTO 10013G23KT 6SM -RASN OVC004 00/00 A2987 RMK ICG PAST HR
                 PRESFR SLP122 =
2018-11-14 00:18 METAR CYPD 140018Z AUTO 10014G23KT 7SM -RA OVC004 00/00 A2988 RMK ICG PAST HR
                 PRESFR SLP125 =
2018-11-14 00:12 METAR CYPD 140012Z AUTO 11017KT 8SM -RA -UP OVC004 00/00 A2987 RMK ICG PAST HR
                 PRESFR SLP123 =
2018-11-14 00:09 METAR CYPD 140009Z AUTO 11016G21KT 7SM -UP OVC004 00/00 A2989 RMK ICG PAST HR
                 PRESFR SLP128 =
2018-11-14 00:08 METAR CYPD 140008Z AUTO 11017KT 7SM -FZUP OVC004 00/00 A2989 RMK ICG PAST HR
                 PRESFR SLP129 =
2018-11-14 00:07 METAR CYPD 140007Z AUTO 11016G21KT 6SM -SN -FZUP OVC004 00/00 A2989 RMK ICG
                 INTMT PRESFR SLP129 =
2018-11-14 00:02 METAR CYPD 140002Z AUTO 11016KT 3SM -SN -FZUP OVC004 00/00 A2990 RMK ICG INTMT
                 PRESFR SLP131 =
2018-11-14 00:01 METAR CYPD 140001Z AUTO 11015G20KT 3SM -SN OVC004 00/00 A2990 RMK ICG INTMT
                 PRESFR SLP132 =
2018-11-14 00:00 METAR CYPD 140000Z AUTO 11014G20KT 2 1/2SM -SN OVC004 00/00 A2990 RMK ICG INTMT
                 PRESFR PCPN 0.8MM PAST HR SLP132 =
2018-11-13 23:46 METAR CYPD 132346Z AUTO 12013G22KT 1 1/4SM -SN FZUP OVC004 00/M00 A2993 RMK ICG
                 PRESFR SLP142 =
2018-11-13 23:44 METAR CYPD 132344Z AUTO 11015G22KT 1 1/4SM FZUP BR OVC004 00/M00 A2994 RMK ICG
                 PRESFR SLP145 =
2018-11-13 23:34 METAR CYPD 132334Z AUTO 12013G18KT 1 1/4SM -SN FZUP OVC004 00/M00 A2995 RMK ICG
                 PRESFR SLP150 =
2018-11-13 23:18 METAR CYPD 132318Z AUTO 13012G19KT 1 1/4SM FZUP BR OVC004 00/M00 A2999 RMK ICG
                 PRESFR SLP163 =
2018-11-13 23:12 METAR CYPD 132312Z AUTO 12013G18KT 1 1/2SM -SN -FZUP OVC004 00/M00 A2999 RMK ICG
                 PRESFR SLP164 =
2018-11-13 23:00 METAR CYPD 132300Z AUTO 12011G18KT 2 1/2SM -SN OVC004 00/M00 A3001 RMK VIS VRB 1
                 1/4-3 ICG PRESFR SLP169 =
2018-11-13 22:59 METAR CYPD 132259Z AUTO 12012G18KT 2 1/2SM -SN BKN004 OVC008 00/M00 A3001 RMK
                 VIS VRB 1 1/4-3 ICG PRESFR SLP169 =
2018-11-13 22:58 METAR CYPD 132258Z AUTO 11011G18KT 3SM -SN OVC004 00/M00 A3001 RMK ICG PRESFR
                 SLP170 =
2018-11-13 22:55 METAR CYPD 132255Z AUTO 12012G18KT 5SM -SN OVC004 00/M00 A3001 RMK PRESFR SLP171
                 =
2018-11-13 22:51 METAR CYPD 132251Z AUTO 12013KT 6SM -SN OVC004 00/M00 A3002 RMK SLP173 =
2018-11-13 22:36 METAR CYPD 132236Z AUTO 12013G19KT 3SM -SN OVC004 00/M00 A3003 RMK SLP177 =
2018-11-13 22:32 METAR CYPD 132232Z AUTO 12010KT 2 1/2SM -SN OVC004 00/M00 A3004 RMK SLP179 =
2018-11-13 22:29 METAR CYPD 132229Z AUTO 12010KT 3SM -SN OVC004 00/M00 A3004 RMK SLP180 =
2018-11-13 22:17 METAR CYPD 132217Z AUTO 12009KT 2 1/2SM -SN BKN004 OVC014 M00/M01 A3005 RMK VIS
                 VRB 2-3 PRESFR SLP183 =
2018-11-13 22:08 METAR CYPD 132208Z AUTO 12008KT 4SM -SN BKN004 OVC014 M00/M01 A3006 RMK PRESFR
                 SLP188 =
2018-11-13 22:00 METAR CYPD 132200Z AUTO 12009KT 4SM -SN FEW006 OVC014 M00/M01 A3008 RMK PRESFR
                 SLP192 =
2018-11-13 21:52 METAR CYPD 132152Z AUTO 13009KT 3SM -SN OVC016 M00/M01 A3009 RMK PRESFR SLP197 =
2018-11-13 21:40 METAR CYPD 132140Z AUTO 14007G15KT 2 1/4SM -SN OVC016 M01/M02 A3011 RMK VIS VRB
                 1 1/2-3 SLP203 =
2018-11-13 21:27 METAR CYPD 132127Z AUTO 14009KT 5SM -SN OVC024 M00/M03 A3011 RMK PRESFR SLP203 =
2018-11-13 21:26 METAR CYPD 132126Z AUTO 14009KT 5SM -SN OVC026 M00/M03 A3011 RMK PRESFR SLP203 =
2018-11-13 21:23 METAR CYPD 132123Z AUTO 14010KT 7SM -SN OVC028 00/M03 A3011 RMK PRESFR SLP204 =
2018-11-13 21:19 METAR CYPD 132119Z AUTO 14009KT 8SM -RASN OVC030 00/M03 A3011 RMK PRESFR SLP205
                 =
2018-11-13 21:06 METAR CYPD 132106Z AUTO 16009KT 110V180 9SM -RA OVC038 01/M06 A3014 RMK PRESFR
                 SLP214 =
2018-11-13 21:00 METAR CYPD 132100Z AUTO 14005KT 110V170 9SM BKN040 OVC050 01/M07 A3015 RMK
                 PRESFR SLP218 =
2018-11-13 20:00 METAR CYPD 132000Z AUTO 14007KT 9SM OVC055 01/M08 A3021 RMK SLP236 =
2018-11-13 19:00 METAR CYPD 131900Z AUTO 18005KT 9SM BKN065 BKN078 01/M08 A3025 RMK SLP252 =
2018-11-13 18:00 METAR CYPD 131800Z AUTO 17006KT 150V230 9SM FEW070 01/M06 A3028 RMK SLP262 =
2018-11-13 17:00 METAR CYPD 131700Z AUTO 22004KT 9SM BKN090 BKN120 01/M07 A3030 RMK SLP269 =
2018-11-13 16:00 METAR CYPD 131600Z AUTO 25003KT 9SM CLR 00/M06 A3031 RMK SLP272 =
2018-11-13 15:00 METAR CYPD 131500Z AUTO 28006KT 240V300 9SM CLR 00/M06 A3034 RMK SLP281 =
2018-11-13 14:00 METAR CYPD 131400Z AUTO 25006KT 230V290 9SM SCT095 M01/M05 A3036 RMK SLP287 =
2018-11-13 13:23 METAR CYPD 131323Z AUTO 25005KT 220V280 9SM SCT018 M01/M05 A3036 RMK SLP288 =
2018-11-13 13:00 METAR CYPD 131300Z AUTO 25006KT 9SM BKN018 M02/M05 A3036 RMK SLP289 =
2018-11-13 12:52 METAR CYPD 131252Z AUTO 26005KT 9SM BKN020 M02/M05 A3037 RMK SLP291 =
2018-11-13 12:00 METAR CYPD 131200Z AUTO 25007KT 9SM SCT027 M02/M06 A3035 RMK SLP284 =
2018-11-13 11:00 METAR CYPD 131100Z AUTO 30009G18KT 9SM FEW026 SCT170 M01/M06 A3034 RMK SLP280 =
2018-11-13 10:42 METAR CYPD 131042Z AUTO 32011G22KT 280V350 9SM SCT024 M01/M06 A3033 RMK SLP279 =
2018-11-13 10:36 METAR CYPD 131036Z AUTO 30009G21KT 9SM BKN024 BKN180 M01/M06 A3034 RMK SLP280 =
2018-11-13 10:28 METAR CYPD 131028Z AUTO 29009G16KT 9SM SCT024 M01/M05 A3034 RMK SLP281 =
2018-11-13 10:00 METAR CYPD 131000Z AUTO 30011G16KT 9SM BKN024 M01/M06 A3033 RMK SLP278 =
2018-11-13 09:00 METAR CYPD 130900Z AUTO 30005G17KT 9SM OVC022 M01/M04 A3033 RMK SLP278 =
2018-11-13 08:00 METAR CYPD 130800Z AUTO 29014G24KT 9SM BKN024 M01/M06 A3031 RMK SLP273 =
2018-11-13 07:52 METAR CYPD 130752Z AUTO 29011G20KT 9SM BKN024 BKN029 M01/M06 A3031 RMK SLP272 =
2018-11-13 07:00 METAR CYPD 130700Z AUTO 30013G21KT 9SM FEW026 M01/M06 A3031 RMK SLP270 =

Support USWX by starting your Amazon purchase here.